sensor_id;sensor_type;location;lat;lon;timestamp;pressure;altitude;pressure_sealevel;temperature;humidity
22580;BME280;11456;47.030;15.396;2023-05-25T00:01:35;97844.16;;;15.89;100.00
22580;BME280;11456;47.030;15.396;2023-05-25T00:04:02;97841.81;;;15.86;100.00
22580;BME280;11456;47.030;15.396;2023-05-25T00:06:30;97841.69;;;15.80;100.00
22580;BME280;11456;47.030;15.396;2023-05-25T00:08:56;97851.19;;;15.45;100.00
22580;BME280;11456;47.030;15.396;2023-05-25T00:11:23;97846.03;;;15.66;100.00
22580;BME280;11456;47.030;15.396;2023-05-25T00:13:50;97845.72;;;15.84;100.00
22580;BME280;11456;47.030;15.396;2023-05-25T00:16:17;97846.75;;;16.06;100.00
22580;BME280;11456;47.030;15.396;2023-05-25T00:18:43;97843.09;;;15.98;100.00
22580;BME280;11456;47.030;15.396;2023-05-25T00:21:10;97849.25;;;15.92;100.00
22580;BME280;11456;47.030;15.396;2023-05-25T00:23:37;97845.72;;;15.84;100.00
22580;BME280;11456;47.030;15.396;2023-05-25T00:26:04;97852.72;;;15.78;100.00
22580;BME280;11456;47.030;15.396;2023-05-25T00:28:30;97854.28;;;15.95;100.00
22580;BME280;11456;47.030;15.396;2023-05-25T00:30:57;97854.28;;;15.95;100.00
22580;BME280;11456;47.030;15.396;2023-05-25T00:33:24;97854.72;;;16.07;100.00
22580;BME280;11456;47.030;15.396;2023-05-25T00:35:51;97862.03;;;16.07;100.00
22580;BME280;11456;47.030;15.396;2023-05-25T00:38:20;97859.84;;;16.02;100.00
22580;BME280;11456;47.030;15.396;2023-05-25T00:40:46;97855.66;;;15.99;100.00
22580;BME280;11456;47.030;15.396;2023-05-25T00:43:13;97849.09;;;16.09;100.00
22580;BME280;11456;47.030;15.396;2023-05-25T00:45:39;97854.28;;;15.95;100.00
22580;BME280;11456;47.030;15.396;2023-05-25T00:48:06;97857.28;;;15.86;100.00
22580;BME280;11456;47.030;15.396;2023-05-25T00:50:36;97864.19;;;15.88;100.00
22580;BME280;11456;47.030;15.396;2023-05-25T00:53:07;97860.69;;;16.02;100.00
22580;BME280;11456;47.030;15.396;2023-05-25T00:55:35;97864.31;;;15.95;100.00
22580;BME280;11456;47.030;15.396;2023-05-25T00:58:05;97864.81;;;15.98;100.00
22580;BME280;11456;47.030;15.396;2023-05-25T01:00:33;97860.75;;;15.94;100.00
22580;BME280;11456;47.030;15.396;2023-05-25T01:03:02;97861.66;;;16.10;100.00
22580;BME280;11456;47.030;15.396;2023-05-25T01:05:36;97856.22;;;16.10;100.00
22580;BME280;11456;47.030;15.396;2023-05-25T01:08:03;97863.66;;;16.16;100.00
22580;BME280;11456;47.030;15.396;2023-05-25T01:10:30;97860.09;;;16.15;100.00
22580;BME280;11456;47.030;15.396;2023-05-25T01:12:58;97846.91;;;16.27;100.00
22580;BME280;11456;47.030;15.396;2023-05-25T01:15:28;97855.72;;;16.29;100.00
22580;BME280;11456;47.030;15.396;2023-05-25T01:17:55;97846.06;;;16.26;100.00
22580;BME280;11456;47.030;15.396;2023-05-25T01:20:27;97844.38;;;16.25;100.00
22580;BME280;11456;47.030;15.396;2023-05-25T01:25:47;97862.03;;;16.07;100.00
22580;BME280;11456;47.030;15.396;2023-05-25T01:30:42;97855.94;;;16.04;100.00
22580;BME280;11456;47.030;15.396;2023-05-25T01:33:09;97858.28;;;16.08;100.00
22580;BME280;11456;47.030;15.396;2023-05-25T01:35:36;97855.38;;;16.09;100.00
22580;BME280;11456;47.030;15.396;2023-05-25T01:38:04;97851.19;;;16.07;100.00
22580;BME280;11456;47.030;15.396;2023-05-25T01:40:31;97854.16;;;15.89;100.00
22580;BME280;11456;47.030;15.396;2023-05-25T01:42:59;97856.88;;;15.89;100.00
22580;BME280;11456;47.030;15.396;2023-05-25T01:45:26;97853.28;;;15.96;100.00
22580;BME280;11456;47.030;15.396;2023-05-25T01:50:50;97852.00;;;15.84;100.00
22580;BME280;11456;47.030;15.396;2023-05-25T01:53:22;97851.59;;;15.73;100.00
22580;BME280;11456;47.030;15.396;2023-05-25T01:55:53;97854.31;;;15.73;100.00
22580;BME280;11456;47.030;15.396;2023-05-25T01:58:22;97850.09;;;15.62;100.00
22580;BME280;11456;47.030;15.396;2023-05-25T02:00:50;97851.50;;;15.58;100.00
22580;BME280;11456;47.030;15.396;2023-05-25T02:03:18;97856.59;;;15.61;100.00
22580;BME280;11456;47.030;15.396;2023-05-25T02:05:47;97855.22;;;15.57;100.00
22580;BME280;11456;47.030;15.396;2023-05-25T02:08:14;97852.19;;;15.60;100.00
22580;BME280;11456;47.030;15.396;2023-05-25T02:10:40;97847.75;;;15.59;100.00
22580;BME280;11456;47.030;15.396;2023-05-25T02:13:07;97849.09;;;15.63;100.00
22580;BME280;11456;47.030;15.396;2023-05-25T02:15:33;97847.03;;;15.65;100.00
22580;BME280;11456;47.030;15.396;2023-05-25T02:18:00;97842.75;;;15.40;100.00
22580;BME280;11456;47.030;15.396;2023-05-25T02:20:29;97851.31;;;15.29;100.00
22580;BME280;11456;47.030;15.396;2023-05-25T02:22:56;97850.03;;;15.08;100.00
22580;BME280;11456;47.030;15.396;2023-05-25T02:25:22;97848.00;;;15.10;100.00
22580;BME280;11456;47.030;15.396;2023-05-25T02:27:49;97852.00;;;14.83;100.00
22580;BME280;11456;47.030;15.396;2023-05-25T02:30:16;97847.84;;;15.04;100.00
22580;BME280;11456;47.030;15.396;2023-05-25T02:32:42;97845.66;;;14.99;100.00
22580;BME280;11456;47.030;15.396;2023-05-25T02:35:09;97851.34;;;15.12;100.00
22580;BME280;11456;47.030;15.396;2023-05-25T02:37:36;97849.06;;;14.85;100.00
22580;BME280;11456;47.030;15.396;2023-05-25T02:40:04;97863.53;;;14.77;100.00
22580;BME280;11456;47.030;15.396;2023-05-25T02:42:30;97859.44;;;14.81;100.00
22580;BME280;11456;47.030;15.396;2023-05-25T02:44:57;97866.78;;;14.57;100.00
22580;BME280;11456;47.030;15.396;2023-05-25T02:47:24;97865.63;;;15.06;100.00
22580;BME280;11456;47.030;15.396;2023-05-25T02:49:51;97871.78;;;14.92;100.00
22580;BME280;11456;47.030;15.396;2023-05-25T02:52:18;97870.91;;;14.92;100.00
22580;BME280;11456;47.030;15.396;2023-05-25T02:54:44;97866.34;;;14.92;100.00
22580;BME280;11456;47.030;15.396;2023-05-25T02:57:17;97867.72;;;14.96;100.00
22580;BME280;11456;47.030;15.396;2023-05-25T02:59:44;97874.72;;;14.74;100.00
22580;BME280;11456;47.030;15.396;2023-05-25T03:02:11;97874.59;;;14.52;100.00
22580;BME280;11456;47.030;15.396;2023-05-25T03:04:38;97881.72;;;14.44;100.00
22580;BME280;11456;47.030;15.396;2023-05-25T03:07:04;97880.69;;;14.37;100.00
22580;BME280;11456;47.030;15.396;2023-05-25T03:09:31;97886.63;;;14.57;100.00
22580;BME280;11456;47.030;15.396;2023-05-25T03:12:00;97885.91;;;14.63;100.00
22580;BME280;11456;47.030;15.396;2023-05-25T03:14:27;97891.66;;;14.60;100.00
22580;BME280;11456;47.030;15.396;2023-05-25T03:17:00;97886.13;;;14.46;100.00
22580;BME280;11456;47.030;15.396;2023-05-25T03:19:27;97889.31;;;14.57;100.00
22580;BME280;11456;47.030;15.396;2023-05-25T03:21:53;97892.88;;;14.50;100.00
22580;BME280;11456;47.030;15.396;2023-05-25T03:24:20;97894.25;;;14.37;100.00
22580;BME280;11456;47.030;15.396;2023-05-25T03:26:46;97904.91;;;14.47;100.00
22580;BME280;11456;47.030;15.396;2023-05-25T03:29:14;97895.94;;;14.38;100.00
22580;BME280;11456;47.030;15.396;2023-05-25T03:31:40;97901.66;;;14.35;100.00
22580;BME280;11456;47.030;15.396;2023-05-25T03:34:07;97906.91;;;14.29;100.00
22580;BME280;11456;47.030;15.396;2023-05-25T03:36:35;97913.16;;;14.05;100.00
22580;BME280;11456;47.030;15.396;2023-05-25T03:39:05;97916.88;;;13.96;100.00
22580;BME280;11456;47.030;15.396;2023-05-25T03:41:32;97924.16;;;14.03;100.00
22580;BME280;11456;47.030;15.396;2023-05-25T03:43:59;97935.19;;;14.10;100.00
22580;BME280;11456;47.030;15.396;2023-05-25T03:46:25;97935.88;;;14.20;100.00
22580;BME280;11456;47.030;15.396;2023-05-25T03:48:55;97939.94;;;14.32;100.00
22580;BME280;11456;47.030;15.396;2023-05-25T03:51:21;97938.63;;;14.44;100.00
22580;BME280;11456;47.030;15.396;2023-05-25T03:53:48;97938.75;;;14.67;100.00
22580;BME280;11456;47.030;15.396;2023-05-25T03:56:14;97947.06;;;14.82;100.00
22580;BME280;11456;47.030;15.396;2023-05-25T03:58:41;97948.56;;;14.93;100.00
22580;BME280;11456;47.030;15.396;2023-05-25T04:01:07;97953.47;;;14.97;100.00
22580;BME280;11456;47.030;15.396;2023-05-25T04:03:35;97952.84;;;14.63;100.00
22580;BME280;11456;47.030;15.396;2023-05-25T04:06:02;97962.00;;;14.46;100.00
22580;BME280;11456;47.030;15.396;2023-05-25T04:08:29;97965.03;;;14.67;100.00
22580;BME280;11456;47.030;15.396;2023-05-25T04:10:56;97957.56;;;14.61;100.00
22580;BME280;11456;47.030;15.396;2023-05-25T04:13:23;97958.44;;;14.45;100.00
22580;BME280;11456;47.030;15.396;2023-05-25T04:15:49;97961.50;;;14.58;100.00
22580;BME280;11456;47.030;15.396;2023-05-25T04:18:20;97958.59;;;14.76;100.00
22580;BME280;11456;47.030;15.396;2023-05-25T04:20:47;97967.75;;;14.75;100.00
22580;BME280;11456;47.030;15.396;2023-05-25T04:23:15;97970.81;;;14.64;100.00
22580;BME280;11456;47.030;15.396;2023-05-25T04:25:45;97974.84;;;14.76;100.00
22580;BME280;11456;47.030;15.396;2023-05-25T04:28:13;97967.06;;;14.81;100.00
22580;BME280;11456;47.030;15.396;2023-05-25T04:30:50;97975.53;;;14.78;100.00
22580;BME280;11456;47.030;15.396;2023-05-25T04:33:24;97973.81;;;15.09;100.00
22580;BME280;11456;47.030;15.396;2023-05-25T04:36:01;97969.22;;;15.02;100.00
22580;BME280;11456;47.030;15.396;2023-05-25T04:38:27;97973.81;;;14.93;100.00
22580;BME280;11456;47.030;15.396;2023-05-25T04:41:00;97976.16;;;15.12;100.00
22580;BME280;11456;47.030;15.396;2023-05-25T04:43:31;97973.13;;;15.07;100.00
22580;BME280;11456;47.030;15.396;2023-05-25T04:45:59;97984.69;;;14.69;100.00
22580;BME280;11456;47.030;15.396;2023-05-25T04:48:27;97981.97;;;14.77;100.00
22580;BME280;11456;47.030;15.396;2023-05-25T04:50:54;97989.09;;;14.54;100.00
22580;BME280;11456;47.030;15.396;2023-05-25T04:53:21;97980.09;;;15.02;100.00
22580;BME280;11456;47.030;15.396;2023-05-25T04:55:48;97981.19;;;15.23;100.00
22580;BME280;11456;47.030;15.396;2023-05-25T04:58:14;97984.34;;;14.96;100.00
22580;BME280;11456;47.030;15.396;2023-05-25T05:00:43;97985.66;;;15.00;100.00
22580;BME280;11456;47.030;15.396;2023-05-25T05:03:10;97982.25;;;15.14;100.00
22580;BME280;11456;47.030;15.396;2023-05-25T05:05:37;97990.25;;;14.92;100.00
22580;BME280;11456;47.030;15.396;2023-05-25T05:08:10;97987.31;;;15.25;100.00
22580;BME280;11456;47.030;15.396;2023-05-25T05:10:37;97984.59;;;15.34;100.00
22580;BME280;11456;47.030;15.396;2023-05-25T05:13:04;97988.56;;;15.62;100.00
22580;BME280;11456;47.030;15.396;2023-05-25T05:15:31;97989.47;;;15.93;100.00
22580;BME280;11456;47.030;15.396;2023-05-25T05:17:58;97982.28;;;16.00;100.00
22580;BME280;11456;47.030;15.396;2023-05-25T05:20:24;97976.97;;;16.07;100.00
22580;BME280;11456;47.030;15.396;2023-05-25T05:22:51;97978.19;;;16.27;100.00
22580;BME280;11456;47.030;15.396;2023-05-25T05:25:19;97979.34;;;16.64;100.00
22580;BME280;11456;47.030;15.396;2023-05-25T05:27:46;97971.19;;;16.78;100.00
22580;BME280;11456;47.030;15.396;2023-05-25T05:30:21;97973.69;;;16.88;100.00
22580;BME280;11456;47.030;15.396;2023-05-25T05:32:48;97969.72;;;16.91;100.00
22580;BME280;11456;47.030;15.396;2023-05-25T05:35:16;97968.31;;;16.80;100.00
22580;BME280;11456;47.030;15.396;2023-05-25T05:37:44;97984.75;;;16.18;100.00
22580;BME280;11456;47.030;15.396;2023-05-25T05:40:12;97978.22;;;16.50;100.00
22580;BME280;11456;47.030;15.396;2023-05-25T05:42:40;97980.84;;;16.58;100.00
22580;BME280;11456;47.030;15.396;2023-05-25T05:45:08;97981.34;;;16.84;100.00
22580;BME280;11456;47.030;15.396;2023-05-25T05:47:36;97984.63;;;16.57;100.00
22580;BME280;11456;47.030;15.396;2023-05-25T05:50:02;97982.69;;;16.66;100.00
22580;BME280;11456;47.030;15.396;2023-05-25T05:52:29;97987.75;;;16.92;100.00
22580;BME280;11456;47.030;15.396;2023-05-25T05:54:56;98000.25;;;17.01;100.00
22580;BME280;11456;47.030;15.396;2023-05-25T05:57:23;97990.75;;;16.97;100.00
22580;BME280;11456;47.030;15.396;2023-05-25T05:59:49;97979.94;;;17.26;100.00
22580;BME280;11456;47.030;15.396;2023-05-25T06:02:17;97984.06;;;17.51;100.00
22580;BME280;11456;47.030;15.396;2023-05-25T06:04:44;97983.78;;;17.76;100.00
22580;BME280;11456;47.030;15.396;2023-05-25T06:07:11;97970.66;;;18.15;99.13
22580;BME280;11456;47.030;15.396;2023-05-25T06:09:39;97985.19;;;17.42;100.00
22580;BME280;11456;47.030;15.396;2023-05-25T06:12:06;97980.72;;;17.79;100.00
22580;BME280;11456;47.030;15.396;2023-05-25T06:14:33;97985.72;;;17.23;100.00
22580;BME280;11456;47.030;15.396;2023-05-25T06:17:02;97991.28;;;17.15;100.00
22580;BME280;11456;47.030;15.396;2023-05-25T06:19:29;97988.16;;;17.18;100.00
22580;BME280;11456;47.030;15.396;2023-05-25T06:21:55;97994.50;;;17.33;100.00
22580;BME280;11456;47.030;15.396;2023-05-25T06:24:22;97989.81;;;17.86;100.00
22580;BME280;11456;47.030;15.396;2023-05-25T06:26:48;97991.28;;;18.03;100.00
22580;BME280;11456;47.030;15.396;2023-05-25T06:29:16;97989.94;;;17.99;99.30
22580;BME280;11456;47.030;15.396;2023-05-25T06:31:43;97998.56;;;17.67;100.00
22580;BME280;11456;47.030;15.396;2023-05-25T06:34:09;97987.53;;;17.89;98.80
22580;BME280;11456;47.030;15.396;2023-05-25T06:36:36;97997.03;;;18.51;95.22
22580;BME280;11456;47.030;15.396;2023-05-25T06:39:03;97992.72;;;18.77;93.55
22580;BME280;11456;47.030;15.396;2023-05-25T06:41:29;97997.78;;;19.30;90.72
22580;BME280;11456;47.030;15.396;2023-05-25T06:43:56;97990.09;;;19.12;89.98
22580;BME280;11456;47.030;15.396;2023-05-25T06:46:28;97992.81;;;19.40;86.32
22580;BME280;11456;47.030;15.396;2023-05-25T06:49:00;97997.34;;;19.54;86.43
22580;BME280;11456;47.030;15.396;2023-05-25T06:51:26;97992.63;;;19.13;89.17
22580;BME280;11456;47.030;15.396;2023-05-25T06:53:56;97989.25;;;19.11;91.37
22580;BME280;11456;47.030;15.396;2023-05-25T06:56:22;97987.78;;;20.19;85.73
22580;BME280;11456;47.030;15.396;2023-05-25T06:58:49;97993.25;;;19.43;86.29
22580;BME280;11456;47.030;15.396;2023-05-25T07:01:16;97991.63;;;18.93;87.88
22580;BME280;11456;47.030;15.396;2023-05-25T07:03:43;97996.22;;;19.20;86.96
22580;BME280;11456;47.030;15.396;2023-05-25T07:06:09;97999.97;;;19.69;85.07
22580;BME280;11456;47.030;15.396;2023-05-25T07:08:37;97995.25;;;19.00;88.15
22580;BME280;11456;47.030;15.396;2023-05-25T07:11:04;97993.16;;;19.51;87.22
22580;BME280;11456;47.030;15.396;2023-05-25T07:13:30;97984.81;;;19.10;86.36
22580;BME280;11456;47.030;15.396;2023-05-25T07:15:57;97995.50;;;19.61;86.41
22580;BME280;11456;47.030;15.396;2023-05-25T07:18:24;97994.66;;;20.62;78.66
22580;BME280;11456;47.030;15.396;2023-05-25T07:20:51;97996.09;;;19.97;80.88
22580;BME280;11456;47.030;15.396;2023-05-25T07:23:18;97995.69;;;19.94;82.43
22580;BME280;11456;47.030;15.396;2023-05-25T07:25:45;97984.00;;;20.20;80.14
22580;BME280;11456;47.030;15.396;2023-05-25T07:28:12;97986.72;;;21.27;77.15
22580;BME280;11456;47.030;15.396;2023-05-25T07:30:39;97992.63;;;21.43;73.05
22580;BME280;11456;47.030;15.396;2023-05-25T07:33:06;97994.50;;;20.23;77.75
22580;BME280;11456;47.030;15.396;2023-05-25T07:35:32;97997.66;;;20.94;76.17
22580;BME280;11456;47.030;15.396;2023-05-25T07:38:01;97999.44;;;20.34;78.38
22580;BME280;11456;47.030;15.396;2023-05-25T07:40:29;97995.03;;;21.91;74.20
22580;BME280;11456;47.030;15.396;2023-05-25T07:42:56;97991.75;;;21.56;73.12
22580;BME280;11456;47.030;15.396;2023-05-25T07:45:22;97999.53;;;21.06;73.39
22580;BME280;11456;47.030;15.396;2023-05-25T07:47:49;98001.06;;;21.22;74.38
22580;BME280;11456;47.030;15.396;2023-05-25T07:50:15;98003.53;;;20.77;73.59
22580;BME280;11456;47.030;15.396;2023-05-25T07:52:42;97999.34;;;21.47;72.32
22580;BME280;11456;47.030;15.396;2023-05-25T07:55:09;97993.03;;;21.01;74.92
22580;BME280;11456;47.030;15.396;2023-05-25T07:57:35;97993.47;;;21.11;73.78
22580;BME280;11456;47.030;15.396;2023-05-25T08:00:02;97998.53;;;21.34;73.41
22580;BME280;11456;47.030;15.396;2023-05-25T08:02:38;98003.59;;;22.27;69.74
22580;BME280;11456;47.030;15.396;2023-05-25T08:05:04;98002.31;;;21.33;72.25
22580;BME280;11456;47.030;15.396;2023-05-25T08:07:32;98003.06;;;20.48;75.72
22580;BME280;11456;47.030;15.396;2023-05-25T08:09:58;98002.28;;;21.00;77.25
22580;BME280;11456;47.030;15.396;2023-05-25T08:12:25;98003.13;;;20.94;74.79
22580;BME280;11456;47.030;15.396;2023-05-25T08:15:11;98005.88;;;21.00;73.76
22580;BME280;11456;47.030;15.396;2023-05-25T08:17:38;98009.06;;;21.10;71.69
22580;BME280;11456;47.030;15.396;2023-05-25T08:20:06;98009.06;;;21.43;69.54
22580;BME280;11456;47.030;15.396;2023-05-25T08:22:34;98005.63;;;20.75;74.25
22580;BME280;11456;47.030;15.396;2023-05-25T08:25:02;98003.47;;;21.83;67.94
22580;BME280;11456;47.030;15.396;2023-05-25T08:27:29;98005.44;;;21.69;69.34
22580;BME280;11456;47.030;15.396;2023-05-25T08:29:58;98006.22;;;21.83;67.54
22580;BME280;11456;47.030;15.396;2023-05-25T08:32:24;98008.06;;;23.23;63.84
22580;BME280;11456;47.030;15.396;2023-05-25T08:34:51;98002.78;;;22.96;62.14
22580;BME280;11456;47.030;15.396;2023-05-25T08:37:18;98003.97;;;23.32;62.39
22580;BME280;11456;47.030;15.396;2023-05-25T08:39:46;98008.63;;;22.75;61.78
22580;BME280;11456;47.030;15.396;2023-05-25T08:42:13;98002.72;;;22.33;63.93
22580;BME280;11456;47.030;15.396;2023-05-25T08:44:41;98006.63;;;22.51;63.94
22580;BME280;11456;47.030;15.396;2023-05-25T08:47:08;97995.78;;;23.50;60.71
22580;BME280;11456;47.030;15.396;2023-05-25T08:49:37;98006.34;;;23.53;60.34
22580;BME280;11456;47.030;15.396;2023-05-25T08:52:04;98000.16;;;24.19;56.11
22580;BME280;11456;47.030;15.396;2023-05-25T08:54:34;98010.56;;;22.99;58.83
22580;BME280;11456;47.030;15.396;2023-05-25T08:57:04;98005.72;;;23.94;58.04
22580;BME280;11456;47.030;15.396;2023-05-25T08:59:37;98002.03;;;24.66;52.46
22580;BME280;11456;47.030;15.396;2023-05-25T09:02:21;98012.31;;;25.19;51.53
22580;BME280;11456;47.030;15.396;2023-05-25T09:04:50;98015.50;;;24.74;51.48
22580;BME280;11456;47.030;15.396;2023-05-25T09:07:17;98004.34;;;24.21;53.32
22580;BME280;11456;47.030;15.396;2023-05-25T09:09:44;98011.25;;;24.60;53.57
22580;BME280;11456;47.030;15.396;2023-05-25T09:12:12;98005.78;;;23.87;53.95
22580;BME280;11456;47.030;15.396;2023-05-25T09:14:40;98012.09;;;23.45;52.39
22580;BME280;11456;47.030;15.396;2023-05-25T09:17:12;98002.25;;;23.80;53.69
22580;BME280;11456;47.030;15.396;2023-05-25T09:19:39;98003.19;;;24.29;52.21
22580;BME280;11456;47.030;15.396;2023-05-25T09:22:06;98005.16;;;23.85;51.12
22580;BME280;11456;47.030;15.396;2023-05-25T09:24:42;97999.31;;;23.57;50.79
22580;BME280;11456;47.030;15.396;2023-05-25T09:27:10;98003.13;;;23.99;50.72
22580;BME280;11456;47.030;15.396;2023-05-25T09:29:37;98003.56;;;23.78;50.71
22580;BME280;11456;47.030;15.396;2023-05-25T09:32:03;98002.78;;;24.73;49.30
22580;BME280;11456;47.030;15.396;2023-05-25T09:34:31;98000.66;;;25.29;49.19
22580;BME280;11456;47.030;15.396;2023-05-25T09:37:02;98000.47;;;26.52;48.82
22580;BME280;11456;47.030;15.396;2023-05-25T09:39:29;98000.84;;;26.55;47.61
22580;BME280;11456;47.030;15.396;2023-05-25T09:41:56;98003.00;;;25.90;45.36
22580;BME280;11456;47.030;15.396;2023-05-25T09:44:23;97998.34;;;24.72;50.08
22580;BME280;11456;47.030;15.396;2023-05-25T09:46:49;98006.38;;;24.74;48.17
22580;BME280;11456;47.030;15.396;2023-05-25T09:49:16;98010.63;;;25.41;47.08
22580;BME280;11456;47.030;15.396;2023-05-25T09:51:42;98003.00;;;25.90;43.51
22580;BME280;11456;47.030;15.396;2023-05-25T09:54:09;98001.09;;;25.79;46.79
22580;BME280;11456;47.030;15.396;2023-05-25T09:56:36;98007.09;;;25.76;45.08
22580;BME280;11456;47.030;15.396;2023-05-25T09:59:03;98004.94;;;26.81;42.85
22580;BME280;11456;47.030;15.396;2023-05-25T10:01:30;98011.63;;;26.28;43.13
22580;BME280;11456;47.030;15.396;2023-05-25T10:03:57;98014.66;;;25.57;45.92
22580;BME280;11456;47.030;15.396;2023-05-25T10:06:31;98008.06;;;25.58;48.37
22580;BME280;11456;47.030;15.396;2023-05-25T10:08:59;98011.66;;;26.85;41.37
22580;BME280;11456;47.030;15.396;2023-05-25T10:11:26;98007.69;;;27.09;43.76
22580;BME280;11456;47.030;15.396;2023-05-25T10:13:53;98006.59;;;27.10;41.34
22580;BME280;11456;47.030;15.396;2023-05-25T10:16:24;98006.72;;;27.49;41.63
22580;BME280;11456;47.030;15.396;2023-05-25T10:21:45;98003.91;;;24.54;48.10
22580;BME280;11456;47.030;15.396;2023-05-25T10:24:22;98004.13;;;24.53;47.37
22580;BME280;11456;47.030;15.396;2023-05-25T10:26:51;98005.53;;;24.73;50.04
22580;BME280;11456;47.030;15.396;2023-05-25T10:29:19;98005.53;;;25.91;46.32
22580;BME280;11456;47.030;15.396;2023-05-25T10:31:46;97997.53;;;26.42;46.67
22580;BME280;11456;47.030;15.396;2023-05-25T10:34:13;97994.56;;;25.15;46.07
22580;BME280;11456;47.030;15.396;2023-05-25T10:36:40;97992.88;;;26.19;46.10
22580;BME280;11456;47.030;15.396;2023-05-25T10:39:07;97992.31;;;26.05;45.39
22580;BME280;11456;47.030;15.396;2023-05-25T10:41:34;97983.63;;;26.65;45.08
22580;BME280;11456;47.030;15.396;2023-05-25T10:44:01;97983.13;;;26.40;44.59
22580;BME280;11456;47.030;15.396;2023-05-25T10:46:28;97983.03;;;26.34;44.30
22580;BME280;11456;47.030;15.396;2023-05-25T10:48:54;97989.34;;;26.75;43.28
22580;BME280;11456;47.030;15.396;2023-05-25T10:51:37;97982.81;;;26.24;46.14
22580;BME280;11456;47.030;15.396;2023-05-25T10:54:04;97983.13;;;25.65;45.63
22580;BME280;11456;47.030;15.396;2023-05-25T10:56:30;97986.97;;;26.67;43.88
22580;BME280;11456;47.030;15.396;2023-05-25T10:58:57;97982.41;;;27.51;44.44
22580;BME280;11456;47.030;15.396;2023-05-25T11:01:24;97972.72;;;27.65;43.70
22580;BME280;11456;47.030;15.396;2023-05-25T11:03:55;97975.84;;;26.62;42.73
22580;BME280;11456;47.030;15.396;2023-05-25T11:06:22;97979.16;;;25.72;44.86
22580;BME280;11456;47.030;15.396;2023-05-25T11:09:29;97977.03;;;27.28;41.40
22580;BME280;11456;47.030;15.396;2023-05-25T11:11:59;97973.84;;;27.69;39.61
22580;BME280;11456;47.030;15.396;2023-05-25T11:14:27;97979.81;;;28.00;42.36
22580;BME280;11456;47.030;15.396;2023-05-25T11:17:05;97973.13;;;27.96;41.07
22580;BME280;11456;47.030;15.396;2023-05-25T11:19:42;97968.56;;;28.23;40.37
22580;BME280;11456;47.030;15.396;2023-05-25T11:22:52;97966.44;;;28.57;38.86
22580;BME280;11456;47.030;15.396;2023-05-25T11:25:01;97965.06;;;27.94;39.54
22580;BME280;11456;47.030;15.396;2023-05-25T11:27:28;97966.19;;;26.64;41.43
22580;BME280;11456;47.030;15.396;2023-05-25T11:29:56;97962.47;;;26.42;42.36
22580;BME280;11456;47.030;15.396;2023-05-25T11:32:23;97962.63;;;27.09;42.31
22580;BME280;11456;47.030;15.396;2023-05-25T11:34:51;97962.13;;;27.62;41.32
22580;BME280;11456;47.030;15.396;2023-05-25T11:37:19;97953.72;;;26.90;41.14
22580;BME280;11456;47.030;15.396;2023-05-25T11:39:50;97950.22;;;26.95;43.54
22580;BME280;11456;47.030;15.396;2023-05-25T11:42:20;97955.75;;;27.45;40.81
22580;BME280;11456;47.030;15.396;2023-05-25T11:44:47;97951.94;;;28.23;39.85
22580;BME280;11456;47.030;15.396;2023-05-25T11:47:14;97955.41;;;28.35;38.46
22580;BME280;11456;47.030;15.396;2023-05-25T11:49:45;97946.63;;;27.11;41.36
22580;BME280;11456;47.030;15.396;2023-05-25T11:52:13;97936.31;;;27.57;41.88
22580;BME280;11456;47.030;15.396;2023-05-25T11:54:40;97933.78;;;27.22;42.58
22580;BME280;11456;47.030;15.396;2023-05-25T11:57:40;97917.31;;;28.25;40.72
22580;BME280;11456;47.030;15.396;2023-05-25T11:59:59;97919.47;;;27.80;41.05
22580;BME280;11456;47.030;15.396;2023-05-25T12:02:38;97924.44;;;26.32;42.55
22580;BME280;11456;47.030;15.396;2023-05-25T12:05:06;97920.53;;;26.45;42.84
22580;BME280;11456;47.030;15.396;2023-05-25T12:07:41;97913.22;;;25.59;44.47
22580;BME280;11456;47.030;15.396;2023-05-25T12:10:11;97904.56;;;27.81;43.89
22580;BME280;11456;47.030;15.396;2023-05-25T12:12:41;97898.22;;;29.41;40.30
22580;BME280;11456;47.030;15.396;2023-05-25T12:15:09;97902.44;;;28.10;40.68
22580;BME280;11456;47.030;15.396;2023-05-25T12:17:36;97909.31;;;27.30;42.53
22580;BME280;11456;47.030;15.396;2023-05-25T12:20:04;97890.06;;;27.19;43.24
22580;BME280;11456;47.030;15.396;2023-05-25T12:22:32;97887.09;;;29.04;41.22
22580;BME280;11456;47.030;15.396;2023-05-25T12:24:59;97888.94;;;29.63;38.39
22580;BME280;11456;47.030;15.396;2023-05-25T12:27:26;97893.78;;;28.77;38.92
22580;BME280;11456;47.030;15.396;2023-05-25T12:29:53;97894.75;;;28.39;39.90
22580;BME280;11456;47.030;15.396;2023-05-25T12:32:23;97885.19;;;28.51;38.87
22580;BME280;11456;47.030;15.396;2023-05-25T12:34:50;97891.81;;;26.91;42.53
22580;BME280;11456;47.030;15.396;2023-05-25T12:37:17;97887.22;;;26.23;45.34
22580;BME280;11456;47.030;15.396;2023-05-25T12:39:45;97890.69;;;27.59;40.96
22580;BME280;11456;47.030;15.396;2023-05-25T12:42:12;97880.69;;;27.03;42.41
22580;BME280;11456;47.030;15.396;2023-05-25T12:44:40;97881.94;;;26.50;42.65
22580;BME280;11456;47.030;15.396;2023-05-25T12:47:17;97886.22;;;27.97;42.09
22580;BME280;11456;47.030;15.396;2023-05-25T12:50:08;97881.97;;;27.89;41.47
22580;BME280;11456;47.030;15.396;2023-05-25T12:52:37;97878.75;;;28.19;41.11
22580;BME280;11456;47.030;15.396;2023-05-25T12:57:59;97870.16;;;27.55;39.72
22580;BME280;11456;47.030;15.396;2023-05-25T13:00:30;97868.78;;;27.02;42.16
22580;BME280;11456;47.030;15.396;2023-05-25T13:02:57;97859.34;;;27.53;42.88
22580;BME280;11456;47.030;15.396;2023-05-25T13:07:55;97854.84;;;27.31;40.86